Time;durP1;ratioP1;P1;durP2;ratioP2;P2;SDS_P1;SDS_P2;PMS_P1;PMS_P2;Temp;Humidity;BMP_temperature;BMP_pressure;BME280_temperature;BME280_humidity;BME280_pressure;Samples;Min_cycle;Max_cycle;Signal;HPM_P1;HPM_P2
2022/03/17 17:30:43;;;;;;;5.57;1.20;;;11.40;45.70;;;;;;6215846;23;20017;-85
2022/03/17 17:33:14;;;;;;;6.25;1.48;;;11.20;46.40;;;;;;6215173;23;20029;-86
2022/03/17 17:35:43;;;;;;;7.32;1.65;;;11.00;46.70;;;;;;6224473;23;20017;-85
2022/03/17 17:38:10;;;;;;;5.50;1.42;;;10.70;47.70;;;;;;6216171;23;20099;-86
2022/03/17 17:40:38;;;;;;;6.30;1.65;;;10.50;47.80;;;;;;6216029;22;20075;-85
2022/03/17 17:43:06;;;;;;;5.53;1.23;;;10.20;48.10;;;;;;6215595;23;20005;-86
2022/03/17 17:45:37;;;;;;;8.35;1.50;;;10.00;49.10;;;;;;6218512;23;20025;-86
2022/03/17 17:48:26;;;;;;;4.55;1.25;;;9.80;50.10;;;;;;6219085;23;20101;-85
2022/03/17 17:50:53;;;;;;;6.55;1.13;;;9.50;50.80;;;;;;6219160;23;20787;-85
2022/03/17 17:53:23;;;;;;;7.60;1.55;;;9.40;51.00;;;;;;6220788;23;20029;-86
2022/03/17 17:55:51;;;;;;;4.15;1.10;;;9.30;51.40;;;;;;6231133;22;20064;-85
2022/03/17 17:58:21;;;;;;;5.00;1.27;;;9.00;51.60;;;;;;6232101;23;20049;-86
2022/03/17 18:00:47;;;;;;;8.75;1.73;;;8.90;51.70;;;;;;6228326;23;20049;-85
2022/03/17 18:03:17;;;;;;;7.18;1.30;;;8.70;51.90;;;;;;6232302;22;20060;-86
2022/03/17 18:05:44;;;;;;;5.38;1.23;;;8.60;52.50;;;;;;6232302;23;20031;-85
2022/03/17 18:08:15;;;;;;;7.15;1.50;;;8.40;52.70;;;;;;6197429;23;20020;-86
2022/03/17 18:10:51;;;;;;;6.32;1.58;;;8.30;53.30;;;;;;6221909;23;20013;-85
2022/03/17 18:13:28;;;;;;;5.63;1.20;;;8.20;53.30;;;;;;6224453;22;20025;-87
2022/03/17 18:15:55;;;;;;;4.60;1.45;;;8.00;53.90;;;;;;6220347;23;20040;-87
2022/03/17 18:18:29;;;;;;;7.63;1.63;;;7.90;54.20;;;;;;6220526;23;20076;-87
2022/03/17 18:20:56;;;;;;;6.78;1.73;;;7.80;54.20;;;;;;6218414;23;20022;-87
2022/03/17 18:23:23;;;;;;;10.77;2.03;;;7.70;54.30;;;;;;6219732;22;20099;-87
2022/03/17 18:25:55;;;;;;;11.48;1.40;;;7.60;54.20;;;;;;6218030;23;20838;-87
2022/03/17 18:28:32;;;;;;;4.13;1.20;;;7.50;54.70;;;;;;6192146;23;20017;-87
2022/03/17 18:31:13;;;;;;;5.57;1.30;;;7.40;54.70;;;;;;6220082;23;20027;-87
2022/03/17 18:33:50;;;;;;;5.15;1.27;;;7.30;55.00;;;;;;6216968;22;20088;-86
2022/03/17 18:36:19;;;;;;;5.35;1.45;;;7.20;55.40;;;;;;6216271;23;20025;-86
2022/03/17 18:38:50;;;;;;;7.00;1.42;;;7.10;56.80;;;;;;6218787;23;20013;-87
2022/03/17 18:41:17;;;;;;;6.75;1.63;;;7.00;56.50;;;;;;6216003;23;20513;-86
2022/03/17 18:43:46;;;;;;;7.90;1.48;;;6.90;57.20;;;;;;6214802;23;20029;-86
2022/03/17 18:46:13;;;;;;;6.50;1.63;;;6.70;58.60;;;;;;6213734;23;20044;-87
2022/03/17 18:48:40;;;;;;;8.52;1.95;;;6.60;58.20;;;;;;6217040;23;20021;-87
2022/03/17 18:51:15;;;;;;;15.98;2.85;;;6.50;58.50;;;;;;6215795;23;20013;-87
2022/03/17 18:53:42;;;;;;;8.55;1.60;;;6.40;58.90;;;;;;6216385;23;20056;-87
2022/03/17 18:56:12;;;;;;;7.95;1.70;;;6.30;59.60;;;;;;6218625;22;20017;-87
2022/03/17 18:58:39;;;;;;;4.80;1.30;;;6.20;58.90;;;;;;6216058;23;20025;-86
2022/03/17 19:01:07;;;;;;;8.93;1.67;;;6.20;58.50;;;;;;6215123;23;20471;-86
2022/03/17 19:03:34;;;;;;;9.18;1.38;;;6.10;59.20;;;;;;6214490;23;20005;-86
2022/03/17 19:06:01;;;;;;;10.35;1.60;;;6.00;59.80;;;;;;6216005;23;20017;-86
2022/03/17 19:08:28;;;;;;;10.73;1.40;;;5.90;60.60;;;;;;6216847;23;20364;-87
2022/03/17 19:10:55;;;;;;;7.68;1.65;;;5.80;60.50;;;;;;6215722;22;20071;-87
2022/03/17 19:13:25;;;;;;;4.05;1.23;;;5.70;61.40;;;;;;6213912;23;20056;-86
2022/03/17 19:15:54;;;;;;;9.98;1.60;;;5.60;60.90;;;;;;6217185;23;20017;-86
2022/03/17 19:18:23;;;;;;;10.40;1.58;;;5.60;60.60;;;;;;6215193;23;20380;-86
2022/03/17 19:20:50;;;;;;;6.60;1.70;;;5.50;60.80;;;;;;6215559;23;20027;-86
2022/03/17 19:23:19;;;;;;;7.80;1.60;;;5.40;61.70;;;;;;6216896;23;20072;-86
2022/03/17 19:25:46;;;;;;;3.92;1.25;;;5.30;61.80;;;;;;6219019;23;20482;-87
2022/03/17 19:28:15;;;;;;;7.35;1.58;;;5.30;62.40;;;;;;6215904;23;20025;-86
2022/03/17 19:30:42;;;;;;;5.07;1.33;;;5.20;63.40;;;;;;6213586;23;20095;-86
2022/03/17 19:33:09;;;;;;;7.25;1.60;;;5.20;64.00;;;;;;6216164;23;20029;-87
2022/03/17 19:35:35;;;;;;;4.85;1.27;;;5.10;63.80;;;;;;6214102;23;20018;-86
2022/03/17 19:38:02;;;;;;;7.47;1.50;;;5.00;63.50;;;;;;6213556;23;20453;-86
2022/03/17 19:41:08;;;;;;;14.52;1.90;;;4.90;64.10;;;;;;6213102;23;20088;-86
2022/03/17 19:43:16;;;;;;;6.18;1.60;;;4.90;63.40;;;;;;6213983;22;20092;-86
2022/03/17 19:45:43;;;;;;;7.85;1.73;;;4.80;63.20;;;;;;6212902;23;20028;-86
2022/03/17 19:48:10;;;;;;;9.98;2.10;;;4.80;63.40;;;;;;6214938;23;20029;-86
2022/03/17 19:50:55;;;;;;;7.47;2.15;;;4.60;68.60;;;;;;6212829;23;20395;-86
2022/03/17 19:53:34;;;;;;;9.02;2.10;;;4.50;67.60;;;;;;6214670;22;20759;-87
2022/03/17 19:56:11;;;;;;;10.45;2.53;;;4.40;66.10;;;;;;6213692;22;20678;-86
2022/03/17 19:58:44;;;;;;;9.00;2.65;;;4.40;67.90;;;;;;6212724;23;20021;-86
2022/03/17 20:01:11;;;;;;;10.38;2.20;;;4.30;68.40;;;;;;6213540;23;20025;-86
2022/03/17 20:03:59;;;;;;;10.48;2.22;;;4.40;66.40;;;;;;6214079;23;20039;-87
2022/03/17 20:06:27;;;;;;;6.10;2.35;;;4.40;67.40;;;;;;6213546;23;20714;-86
2022/03/17 20:09:14;;;;;;;8.27;2.50;;;4.30;66.90;;;;;;6210392;23;20059;-86
2022/03/17 20:14:26;;;;;;;12.48;2.40;;;4.20;66.00;;;;;;6213471;23;20029;-86
2022/03/17 20:16:54;;;;;;;9.77;2.33;;;4.20;65.40;;;;;;6214497;23;20478;-86
2022/03/17 20:19:28;;;;;;;10.07;2.42;;;4.20;66.40;;;;;;6213806;23;20052;-86
2022/03/17 20:21:55;;;;;;;5.72;2.10;;;4.10;66.50;;;;;;6213723;23;20023;-86
2022/03/17 20:24:22;;;;;;;6.90;2.30;;;4.10;66.10;;;;;;6214936;23;20021;-86
2022/03/17 20:26:49;;;;;;;8.55;2.45;;;4.00;65.90;;;;;;6186963;23;20028;-86
2022/03/17 20:29:16;;;;;;;6.55;2.20;;;3.90;67.70;;;;;;6214451;23;20076;-86
2022/03/17 20:32:04;;;;;;;8.85;2.67;;;3.70;69.60;;;;;;6191576;23;20036;-86
2022/03/17 20:34:32;;;;;;;9.27;3.20;;;3.70;68.90;;;;;;6214990;22;20049;-86
2022/03/17 20:37:01;;;;;;;12.80;3.65;;;3.60;70.20;;;;;;6213191;23;20052;-86
2022/03/17 20:39:29;;;;;;;9.15;3.45;;;3.50;70.00;;;;;;6214333;22;20491;-86
2022/03/17 20:41:56;;;;;;;15.43;3.40;;;3.40;69.10;;;;;;6213182;23;20076;-86
2022/03/17 20:44:23;;;;;;;11.05;3.38;;;3.40;68.10;;;;;;6213921;22;20443;-86
2022/03/17 20:46:53;;;;;;;14.52;3.72;;;3.40;68.00;;;;;;6215715;23;20021;-86
2022/03/17 20:49:20;;;;;;;7.65;2.80;;;3.30;71.00;;;;;;6235163;23;20009;-87
2022/03/17 20:51:47;;;;;;;10.00;2.85;;;3.30;69.60;;;;;;6235335;22;20017;-86
2022/03/17 20:54:14;;;;;;;15.82;3.33;;;3.20;69.80;;;;;;6221288;23;20036;-87
2022/03/17 20:56:40;;;;;;;9.57;3.10;;;3.20;69.60;;;;;;6240164;22;20017;-87
2022/03/17 20:59:07;;;;;;;8.38;2.63;;;3.10;69.30;;;;;;6235700;22;20047;-86
2022/03/17 21:01:35;;;;;;;7.88;2.65;;;3.10;69.60;;;;;;6213877;23;20021;-86
2022/03/17 21:04:02;;;;;;;27.08;3.22;;;3.00;70.10;;;;;;6213745;23;20025;-86
2022/03/17 21:06:29;;;;;;;9.88;3.00;;;2.90;70.60;;;;;;6213626;23;20072;-86
2022/03/17 21:08:56;;;;;;;7.97;2.80;;;2.80;72.20;;;;;;6214825;23;20111;-87
2022/03/17 21:11:23;;;;;;;10.05;3.95;;;2.70;72.00;;;;;;6215783;23;20025;-86
2022/03/17 21:13:50;;;;;;;12.38;3.83;;;2.60;71.80;;;;;;6215108;23;20065;-86
2022/03/17 21:16:18;;;;;;;12.18;3.80;;;2.60;69.60;;;;;;6212774;23;20029;-86
2022/03/17 21:18:44;;;;;;;12.68;3.92;;;2.50;69.30;;;;;;6212777;23;20448;-86
2022/03/17 21:21:18;;;;;;;13.25;3.70;;;2.50;69.70;;;;;;6213761;23;21130;-86
2022/03/17 21:23:50;;;;;;;12.70;3.72;;;2.40;69.70;;;;;;6212323;23;20477;-86
2022/03/17 21:26:18;;;;;;;9.68;3.75;;;2.40;70.10;;;;;;6213304;22;20056;-87
2022/03/17 21:28:46;;;;;;;17.58;3.92;;;2.30;70.10;;;;;;6213927;22;20787;-87
2022/03/17 21:31:19;;;;;;;16.08;4.10;;;2.30;69.60;;;;;;6212569;23;20045;-86
2022/03/17 21:33:46;;;;;;;10.93;4.07;;;2.20;69.70;;;;;;6213632;22;20033;-87
2022/03/17 21:36:13;;;;;;;12.50;4.10;;;2.20;69.30;;;;;;6213961;22;20021;-86
2022/03/17 21:38:42;;;;;;;21.85;4.28;;;2.10;70.00;;;;;;6213047;23;20705;-86
2022/03/17 21:41:12;;;;;;;15.00;5.32;;;2.10;70.30;;;;;;6212662;23;20447;-86
2022/03/17 21:43:40;;;;;;;10.98;4.47;;;2.00;70.50;;;;;;6213934;23;20598;-86
2022/03/17 21:46:06;;;;;;;16.20;4.43;;;2.00;71.20;;;;;;6212857;23;20021;-87
2022/03/17 21:48:33;;;;;;;16.30;5.32;;;1.90;72.10;;;;;;6212872;23;20044;-87
2022/03/17 21:51:00;;;;;;;13.15;4.45;;;1.90;73.30;;;;;;6210889;23;20017;-86
2022/03/17 21:53:27;;;;;;;13.70;4.82;;;1.80;70.90;;;;;;6211762;23;20072;-87
2022/03/17 21:55:56;;;;;;;12.93;4.70;;;1.80;71.80;;;;;;6216381;23;20100;-87
2022/03/17 21:58:22;;;;;;;17.42;4.97;;;1.70;73.10;;;;;;6212660;23;20052;-87
2022/03/17 22:00:49;;;;;;;14.70;5.15;;;1.60;74.50;;;;;;6212567;23;20837;-87
2022/03/17 22:03:16;;;;;;;9.38;4.10;;;1.60;73.00;;;;;;6212399;23;20021;-86
2022/03/17 22:05:43;;;;;;;11.00;4.07;;;1.60;73.30;;;;;;6213388;23;20021;-87
2022/03/17 22:08:11;;;;;;;11.38;3.67;;;1.50;72.90;;;;;;6210711;23;20404;-87
2022/03/17 22:10:38;;;;;;;8.70;3.70;;;1.50;74.80;;;;;;6211949;23;20079;-86
2022/03/17 22:13:05;;;;;;;8.82;3.75;;;1.40;74.80;;;;;;6211267;23;20055;-87
2022/03/17 22:15:35;;;;;;;14.45;4.38;;;1.30;75.70;;;;;;6214105;23;20047;-87
2022/03/17 22:18:02;;;;;;;11.90;3.83;;;1.30;73.80;;;;;;6212244;23;20052;-87
2022/03/17 22:20:29;;;;;;;19.50;4.40;;;1.20;76.50;;;;;;6213155;23;20105;-87
2022/03/17 22:22:56;;;;;;;10.35;3.60;;;1.20;76.60;;;;;;6212251;23;20025;-87
2022/03/17 22:25:23;;;;;;;10.50;3.67;;;1.10;78.80;;;;;;6211939;23;20491;-87
2022/03/17 22:27:50;;;;;;;11.77;3.78;;;1.10;78.00;;;;;;6212795;23;20096;-86
2022/03/17 22:30:16;;;;;;;12.45;3.63;;;1.10;75.80;;;;;;6211548;23;20021;-87
2022/03/17 22:32:43;;;;;;;15.23;4.20;;;1.00;77.30;;;;;;6212418;23;20669;-87
2022/03/17 22:35:10;;;;;;;7.85;3.28;;;1.00;75.70;;;;;;6189017;23;20031;-87
2022/03/17 22:37:41;;;;;;;13.00;3.78;;;1.00;75.30;;;;;;6219147;22;20091;-86
2022/03/17 22:42:55;;;;;;;11.25;3.42;;;1.00;76.00;;;;;;6212604;23;20335;-87
2022/03/17 22:45:22;;;;;;;11.95;3.75;;;0.90;77.80;;;;;;6214143;22;20099;-87
2022/03/17 22:47:49;;;;;;;13.05;4.40;;;0.90;76.10;;;;;;6213448;23;20021;-87
2022/03/17 22:50:16;;;;;;;16.15;4.53;;;0.80;75.70;;;;;;6211823;23;20646;-87
2022/03/17 22:52:46;;;;;;;12.00;4.15;;;0.80;76.70;;;;;;6212465;23;20021;-87
2022/03/17 22:55:13;;;;;;;13.02;4.18;;;0.80;75.80;;;;;;6218561;23;20051;-87
2022/03/17 22:57:40;;;;;;;13.07;3.00;;;0.70;76.80;;;;;;6212681;23;20594;-86
2022/03/17 23:00:33;;;;;;;9.63;3.15;;;0.70;76.20;;;;;;6213599;22;20025;-86
2022/03/17 23:03:01;;;;;;;14.20;3.60;;;0.60;75.70;;;;;;6211676;23;20032;-87
2022/03/17 23:05:36;;;;;;;11.80;3.85;;;0.60;76.90;;;;;;6187460;23;20498;-87
2022/03/17 23:08:04;;;;;;;8.50;3.15;;;0.50;77.60;;;;;;6188797;23;20313;-87
2022/03/17 23:10:42;;;;;;;6.68;2.55;;;0.50;76.90;;;;;;6212425;23;20028;-86
2022/03/17 23:13:10;;;;;;;6.85;2.60;;;0.40;78.10;;;;;;6211342;23;20105;-86
2022/03/17 23:15:37;;;;;;;16.05;3.55;;;0.40;78.50;;;;;;6186787;23;20871;-86
2022/03/17 23:18:24;;;;;;;10.32;3.50;;;0.40;76.50;;;;;;6211169;23;20509;-87
2022/03/17 23:20:51;;;;;;;6.68;2.78;;;0.30;76.80;;;;;;6212910;23;20018;-87
2022/03/17 23:23:19;;;;;;;9.10;2.25;;;0.30;76.30;;;;;;6213565;22;20056;-87
2022/03/17 23:25:47;;;;;;;8.40;2.25;;;0.30;77.10;;;;;;6211847;23;20131;-86
2022/03/17 23:28:14;;;;;;;10.70;2.45;;;0.30;77.70;;;;;;6213360;22;20072;-86
2022/03/17 23:30:40;;;;;;;10.73;2.92;;;0.30;78.60;;;;;;6212184;23;20037;-86
2022/03/17 23:33:07;;;;;;;9.85;2.53;;;0.20;79.80;;;;;;6212717;23;20036;-86
2022/03/17 23:35:34;;;;;;;14.35;2.85;;;0.20;79.30;;;;;;6216747;23;20352;-86
2022/03/17 23:38:02;;;;;;;10.13;2.65;;;0.10;79.20;;;;;;6215055;23;20033;-86
2022/03/17 23:40:30;;;;;;;11.00;2.50;;;0.10;79.00;;;;;;6219309;23;20064;-86
2022/03/17 23:42:57;;;;;;;6.32;2.95;;;0.00;80.00;;;;;;6240196;23;20028;-87
2022/03/17 23:45:23;;;;;;;9.27;3.60;;;0.00;80.20;;;;;;6233332;23;20152;-86
2022/03/17 23:47:50;;;;;;;6.75;2.72;;;-0.10;80.20;;;;;;6225934;23;20013;-87
2022/03/17 23:50:17;;;;;;;10.93;3.30;;;0.00;77.80;;;;;;6240993;23;20559;-88
2022/03/17 23:52:44;;;;;;;13.52;4.13;;;-0.10;79.10;;;;;;6228106;22;20160;-87
2022/03/17 23:55:13;;;;;;;14.13;3.55;;;-0.10;77.80;;;;;;6214918;23;20120;-87
2022/03/17 23:57:44;;;;;;;11.05;3.70;;;-0.10;79.00;;;;;;6214281;23;20075;-87
